sensor_id;sensor_type;location;lat;lon;timestamp;temperature;humidity
10231;DHT22;62604;49.432;8.680;2023-04-06T00:00:09;2.70;57.90
10231;DHT22;62604;49.432;8.680;2023-04-06T00:02:38;2.80;58.50
10231;DHT22;62604;49.432;8.680;2023-04-06T00:05:06;2.90;59.40
10231;DHT22;62604;49.432;8.680;2023-04-06T00:07:33;2.90;59.70
10231;DHT22;62604;49.432;8.680;2023-04-06T00:10:01;2.90;59.60
10231;DHT22;62604;49.432;8.680;2023-04-06T00:12:28;2.80;60.00
10231;DHT22;62604;49.432;8.680;2023-04-06T00:14:55;2.80;60.90
10231;DHT22;62604;49.432;8.680;2023-04-06T00:17:22;2.80;61.80
10231;DHT22;62604;49.432;8.680;2023-04-06T00:19:51;2.70;62.50
10231;DHT22;62604;49.432;8.680;2023-04-06T00:22:18;2.70;64.10
10231;DHT22;62604;49.432;8.680;2023-04-06T00:24:45;2.70;63.80
10231;DHT22;62604;49.432;8.680;2023-04-06T00:27:12;2.80;63.80
10231;DHT22;62604;49.432;8.680;2023-04-06T00:29:39;2.80;62.70
10231;DHT22;62604;49.432;8.680;2023-04-06T00:32:07;2.80;63.10
10231;DHT22;62604;49.432;8.680;2023-04-06T00:34:34;2.80;63.20
10231;DHT22;62604;49.432;8.680;2023-04-06T00:37:02;2.90;62.90
10231;DHT22;62604;49.432;8.680;2023-04-06T00:39:29;2.90;62.40
10231;DHT22;62604;49.432;8.680;2023-04-06T00:41:56;2.90;62.50
10231;DHT22;62604;49.432;8.680;2023-04-06T00:44:24;3.00;64.30
10231;DHT22;62604;49.432;8.680;2023-04-06T00:46:51;2.90;64.80
10231;DHT22;62604;49.432;8.680;2023-04-06T00:49:18;3.00;64.20
10231;DHT22;62604;49.432;8.680;2023-04-06T00:51:45;3.00;63.40
10231;DHT22;62604;49.432;8.680;2023-04-06T00:54:14;2.90;63.70
10231;DHT22;62604;49.432;8.680;2023-04-06T00:56:42;2.90;64.20
10231;DHT22;62604;49.432;8.680;2023-04-06T00:59:10;2.90;64.30
10231;DHT22;62604;49.432;8.680;2023-04-06T01:01:37;2.90;64.50
10231;DHT22;62604;49.432;8.680;2023-04-06T01:04:04;2.80;64.70
10231;DHT22;62604;49.432;8.680;2023-04-06T01:06:31;2.80;67.10
10231;DHT22;62604;49.432;8.680;2023-04-06T01:08:58;2.80;67.00
10231;DHT22;62604;49.432;8.680;2023-04-06T01:11:27;2.70;67.30
10231;DHT22;62604;49.432;8.680;2023-04-06T01:13:54;2.70;67.80
10231;DHT22;62604;49.432;8.680;2023-04-06T01:16:21;2.70;66.90
10231;DHT22;62604;49.432;8.680;2023-04-06T01:18:48;2.60;70.30
10231;DHT22;62604;49.432;8.680;2023-04-06T01:21:15;2.60;73.00
10231;DHT22;62604;49.432;8.680;2023-04-06T01:23:44;2.50;74.90
10231;DHT22;62604;49.432;8.680;2023-04-06T01:26:12;2.40;75.50
10231;DHT22;62604;49.432;8.680;2023-04-06T01:28:39;2.40;77.50
10231;DHT22;62604;49.432;8.680;2023-04-06T01:31:08;2.30;77.90
10231;DHT22;62604;49.432;8.680;2023-04-06T01:33:36;2.20;78.80
10231;DHT22;62604;49.432;8.680;2023-04-06T09:56:02;17.00;7.20
10231;DHT22;62604;49.432;8.680;2023-04-06T09:58:34;16.50;7.50
10231;DHT22;62604;49.432;8.680;2023-04-06T10:01:08;16.80;8.00
10231;DHT22;62604;49.432;8.680;2023-04-06T10:03:44;16.60;8.00
10231;DHT22;62604;49.432;8.680;2023-04-06T10:06:15;18.40;8.30
10231;DHT22;62604;49.432;8.680;2023-04-06T10:08:45;19.70;6.50
10231;DHT22;62604;49.432;8.680;2023-04-06T10:11:16;20.50;5.70
10231;DHT22;62604;49.432;8.680;2023-04-06T10:13:46;20.40;6.00
10231;DHT22;62604;49.432;8.680;2023-04-06T10:16:15;18.30;5.40
10231;DHT22;62604;49.432;8.680;2023-04-06T10:18:47;18.10;5.50
10231;DHT22;62604;49.432;8.680;2023-04-06T10:21:21;18.00;6.10
10231;DHT22;62604;49.432;8.680;2023-04-06T10:23:53;17.70;6.00
10231;DHT22;62604;49.432;8.680;2023-04-06T10:26:24;17.90;6.50
10231;DHT22;62604;49.432;8.680;2023-04-06T10:28:52;17.50;6.20
10231;DHT22;62604;49.432;8.680;2023-04-06T10:31:25;18.50;6.70
10231;DHT22;62604;49.432;8.680;2023-04-06T10:33:56;17.70;5.40
10231;DHT22;62604;49.432;8.680;2023-04-06T10:36:26;17.90;5.50
10231;DHT22;62604;49.432;8.680;2023-04-06T10:38:57;17.80;5.30
10231;DHT22;62604;49.432;8.680;2023-04-06T10:41:32;18.00;6.10
10231;DHT22;62604;49.432;8.680;2023-04-06T10:44:00;18.20;6.10
10231;DHT22;62604;49.432;8.680;2023-04-06T10:46:31;18.80;6.60
10231;DHT22;62604;49.432;8.680;2023-04-06T10:49:09;20.30;4.10
10231;DHT22;62604;49.432;8.680;2023-04-06T10:51:38;21.10;2.60
10231;DHT22;62604;49.432;8.680;2023-04-06T10:54:06;21.60;2.40
10231;DHT22;62604;49.432;8.680;2023-04-06T10:56:38;21.40;1.60
10231;DHT22;62604;49.432;8.680;2023-04-06T10:59:06;20.10;2.10
10231;DHT22;62604;49.432;8.680;2023-04-06T11:01:34;19.70;2.20
10231;DHT22;62604;49.432;8.680;2023-04-06T11:04:02;19.30;2.60
10231;DHT22;62604;49.432;8.680;2023-04-06T11:06:30;19.20;1.90
10231;DHT22;62604;49.432;8.680;2023-04-06T11:08:58;18.50;2.60
10231;DHT22;62604;49.432;8.680;2023-04-06T11:11:28;19.40;3.80
10231;DHT22;62604;49.432;8.680;2023-04-06T11:13:58;19.70;3.30
10231;DHT22;62604;49.432;8.680;2023-04-06T11:16:28;20.80;2.40
10231;DHT22;62604;49.432;8.680;2023-04-06T11:18:57;20.80;3.30
10231;DHT22;62604;49.432;8.680;2023-04-06T11:21:33;20.70;3.20
10231;DHT22;62604;49.432;8.680;2023-04-06T11:24:09;20.80;1.30
10231;DHT22;62604;49.432;8.680;2023-04-06T11:26:39;20.80;1.50
10231;DHT22;62604;49.432;8.680;2023-04-06T11:29:08;20.80;1.60
10231;DHT22;62604;49.432;8.680;2023-04-06T11:31:39;20.40;1.30
10231;DHT22;62604;49.432;8.680;2023-04-06T11:34:11;20.50;1.60
10231;DHT22;62604;49.432;8.680;2023-04-06T11:36:42;19.80;2.70
10231;DHT22;62604;49.432;8.680;2023-04-06T11:39:09;19.60;1.60
10231;DHT22;62604;49.432;8.680;2023-04-06T11:41:37;18.60;2.90
10231;DHT22;62604;49.432;8.680;2023-04-06T11:44:05;18.80;3.60
10231;DHT22;62604;49.432;8.680;2023-04-06T11:46:34;18.80;1.90
10231;DHT22;62604;49.432;8.680;2023-04-06T11:49:04;18.50;2.30
10231;DHT22;62604;49.432;8.680;2023-04-06T11:51:35;18.30;4.40
10231;DHT22;62604;49.432;8.680;2023-04-06T11:54:05;18.70;4.00
10231;DHT22;62604;49.432;8.680;2023-04-06T11:56:32;18.70;3.70
10231;DHT22;62604;49.432;8.680;2023-04-06T11:59:04;18.60;3.30
10231;DHT22;62604;49.432;8.680;2023-04-06T12:01:31;19.10;2.40
10231;DHT22;62604;49.432;8.680;2023-04-06T12:04:01;19.50;3.40
10231;DHT22;62604;49.432;8.680;2023-04-06T12:06:29;20.00;1.60
10231;DHT22;62604;49.432;8.680;2023-04-06T12:08:56;19.40;2.70
10231;DHT22;62604;49.432;8.680;2023-04-06T12:11:24;18.40;2.30
10231;DHT22;62604;49.432;8.680;2023-04-06T12:13:51;18.30;3.60
10231;DHT22;62604;49.432;8.680;2023-04-06T12:16:19;17.80;2.60
10231;DHT22;62604;49.432;8.680;2023-04-06T12:18:47;17.30;2.60
10231;DHT22;62604;49.432;8.680;2023-04-06T12:21:21;17.00;3.40
10231;DHT22;62604;49.432;8.680;2023-04-06T12:23:49;17.00;2.90
10231;DHT22;62604;49.432;8.680;2023-04-06T12:26:16;17.30;2.90
10231;DHT22;62604;49.432;8.680;2023-04-06T12:28:44;17.40;4.00
10231;DHT22;62604;49.432;8.680;2023-04-06T12:31:15;17.60;4.00
10231;DHT22;62604;49.432;8.680;2023-04-06T12:33:42;17.80;4.10
10231;DHT22;62604;49.432;8.680;2023-04-06T12:36:12;17.60;2.10
10231;DHT22;62604;49.432;8.680;2023-04-06T12:38:40;18.00;3.80
10231;DHT22;62604;49.432;8.680;2023-04-06T12:41:13;18.90;2.60
10231;DHT22;62604;49.432;8.680;2023-04-06T12:43:42;19.40;1.50
10231;DHT22;62604;49.432;8.680;2023-04-06T12:46:12;20.10;1.80
10231;DHT22;62604;49.432;8.680;2023-04-06T12:48:40;20.60;1.00
10231;DHT22;62604;49.432;8.680;2023-04-06T12:51:10;20.60;1.00
10231;DHT22;62604;49.432;8.680;2023-04-06T12:53:37;20.50;1.00
10231;DHT22;62604;49.432;8.680;2023-04-06T12:56:16;19.80;1.00
10231;DHT22;62604;49.432;8.680;2023-04-06T12:58:45;19.80;1.00
10231;DHT22;62604;49.432;8.680;2023-04-06T13:01:13;19.90;1.90
10231;DHT22;62604;49.432;8.680;2023-04-06T13:03:41;20.30;1.60
10231;DHT22;62604;49.432;8.680;2023-04-06T13:06:09;19.60;1.00
10231;DHT22;62604;49.432;8.680;2023-04-06T13:08:37;18.90;1.00
10231;DHT22;62604;49.432;8.680;2023-04-06T13:11:07;18.40;1.00
10231;DHT22;62604;49.432;8.680;2023-04-06T13:13:38;18.00;1.00
10231;DHT22;62604;49.432;8.680;2023-04-06T13:16:07;18.60;1.00
10231;DHT22;62604;49.432;8.680;2023-04-06T13:18:36;18.90;1.00
10231;DHT22;62604;49.432;8.680;2023-04-06T13:21:05;19.30;1.00
10231;DHT22;62604;49.432;8.680;2023-04-06T13:23:32;19.20;1.00
10231;DHT22;62604;49.432;8.680;2023-04-06T13:26:02;19.50;1.00
10231;DHT22;62604;49.432;8.680;2023-04-06T13:28:44;19.20;1.00
10231;DHT22;62604;49.432;8.680;2023-04-06T13:31:16;18.70;1.00
10231;DHT22;62604;49.432;8.680;2023-04-06T13:33:44;17.90;1.30
10231;DHT22;62604;49.432;8.680;2023-04-06T13:36:12;17.00;1.20
10231;DHT22;62604;49.432;8.680;2023-04-06T13:38:39;16.50;1.00
10231;DHT22;62604;49.432;8.680;2023-04-06T13:41:06;16.10;1.00
10231;DHT22;62604;49.432;8.680;2023-04-06T13:43:33;16.50;1.70
10231;DHT22;62604;49.432;8.680;2023-04-06T13:46:02;16.40;1.00
10231;DHT22;62604;49.432;8.680;2023-04-06T13:48:29;16.50;1.00
10231;DHT22;62604;49.432;8.680;2023-04-06T13:50:57;16.40;1.00
10231;DHT22;62604;49.432;8.680;2023-04-06T13:53:25;16.10;1.60
10231;DHT22;62604;49.432;8.680;2023-04-06T13:55:53;15.80;1.50
10231;DHT22;62604;49.432;8.680;2023-04-06T13:58:20;15.70;1.50
10231;DHT22;62604;49.432;8.680;2023-04-06T14:00:47;15.90;2.70
10231;DHT22;62604;49.432;8.680;2023-04-06T14:03:16;15.60;1.90
10231;DHT22;62604;49.432;8.680;2023-04-06T14:05:44;16.20;3.40
10231;DHT22;62604;49.432;8.680;2023-04-06T14:08:12;16.20;1.60
10231;DHT22;62604;49.432;8.680;2023-04-06T14:10:41;16.00;1.70
10231;DHT22;62604;49.432;8.680;2023-04-06T14:13:09;16.20;2.30
10231;DHT22;62604;49.432;8.680;2023-04-06T14:15:37;16.20;1.50
10231;DHT22;62604;49.432;8.680;2023-04-06T14:18:04;16.10;1.00
10231;DHT22;62604;49.432;8.680;2023-04-06T14:20:34;15.90;1.70
10231;DHT22;62604;49.432;8.680;2023-04-06T14:23:02;16.00;2.20
10231;DHT22;62604;49.432;8.680;2023-04-06T14:25:29;15.40;1.00
10231;DHT22;62604;49.432;8.680;2023-04-06T14:27:57;15.40;1.80
10231;DHT22;62604;49.432;8.680;2023-04-06T14:30:24;15.50;2.30
10231;DHT22;62604;49.432;8.680;2023-04-06T14:32:51;15.30;1.70
10231;DHT22;62604;49.432;8.680;2023-04-06T14:35:19;15.50;2.00
10231;DHT22;62604;49.432;8.680;2023-04-06T14:37:48;15.40;2.00
10231;DHT22;62604;49.432;8.680;2023-04-06T14:40:15;15.30;3.60
10231;DHT22;62604;49.432;8.680;2023-04-06T14:42:42;15.30;4.00
10231;DHT22;62604;49.432;8.680;2023-04-06T14:45:10;15.10;3.50
10231;DHT22;62604;49.432;8.680;2023-04-06T14:47:37;15.00;3.50
10231;DHT22;62604;49.432;8.680;2023-04-06T14:50:05;14.80;3.60
10231;DHT22;62604;49.432;8.680;2023-04-06T14:52:32;14.80;4.20
10231;DHT22;62604;49.432;8.680;2023-04-06T14:55:04;15.10;4.90
10231;DHT22;62604;49.432;8.680;2023-04-06T14:57:32;15.30;4.80
10231;DHT22;62604;49.432;8.680;2023-04-06T14:59:59;15.20;5.20
10231;DHT22;62604;49.432;8.680;2023-04-06T15:02:26;15.50;5.40
10231;DHT22;62604;49.432;8.680;2023-04-06T15:04:53;15.40;5.30
10231;DHT22;62604;49.432;8.680;2023-04-06T15:07:21;15.00;4.40
10231;DHT22;62604;49.432;8.680;2023-04-06T15:09:48;14.90;4.90
10231;DHT22;62604;49.432;8.680;2023-04-06T15:12:17;14.80;5.00
10231;DHT22;62604;49.432;8.680;2023-04-06T15:14:44;14.80;5.60
10231;DHT22;62604;49.432;8.680;2023-04-06T15:17:11;14.70;5.50
10231;DHT22;62604;49.432;8.680;2023-04-06T15:19:38;14.60;5.20
10231;DHT22;62604;49.432;8.680;2023-04-06T15:22:05;14.50;5.50
10231;DHT22;62604;49.432;8.680;2023-04-06T15:24:32;14.60;4.70
10231;DHT22;62604;49.432;8.680;2023-04-06T15:27:00;14.50;4.60
10231;DHT22;62604;49.432;8.680;2023-04-06T15:29:30;14.30;5.30
10231;DHT22;62604;49.432;8.680;2023-04-06T15:31:57;14.40;5.70
10231;DHT22;62604;49.432;8.680;2023-04-06T15:34:24;14.20;4.80
10231;DHT22;62604;49.432;8.680;2023-04-06T15:36:55;14.30;6.40
10231;DHT22;62604;49.432;8.680;2023-04-06T15:39:24;14.40;6.80
10231;DHT22;62604;49.432;8.680;2023-04-06T15:41:51;14.50;5.90
10231;DHT22;62604;49.432;8.680;2023-04-06T15:44:19;14.50;6.10
10231;DHT22;62604;49.432;8.680;2023-04-06T15:46:48;14.40;5.20
10231;DHT22;62604;49.432;8.680;2023-04-06T15:49:17;14.30;5.20
10231;DHT22;62604;49.432;8.680;2023-04-06T15:51:46;14.20;4.80
10231;DHT22;62604;49.432;8.680;2023-04-06T15:54:14;14.20;5.90
10231;DHT22;62604;49.432;8.680;2023-04-06T15:56:45;14.20;4.80
10231;DHT22;62604;49.432;8.680;2023-04-06T15:59:13;14.10;5.10
10231;DHT22;62604;49.432;8.680;2023-04-06T16:01:40;14.00;4.30
10231;DHT22;62604;49.432;8.680;2023-04-06T16:04:09;13.90;4.20
10231;DHT22;62604;49.432;8.680;2023-04-06T16:06:38;13.90;4.20
10231;DHT22;62604;49.432;8.680;2023-04-06T16:09:05;13.90;4.40
10231;DHT22;62604;49.432;8.680;2023-04-06T16:11:33;13.90;4.00
10231;DHT22;62604;49.432;8.680;2023-04-06T16:14:01;13.90;4.30
10231;DHT22;62604;49.432;8.680;2023-04-06T16:16:28;13.80;4.70
10231;DHT22;62604;49.432;8.680;2023-04-06T16:18:59;13.70;4.60
10231;DHT22;62604;49.432;8.680;2023-04-06T16:21:28;13.60;4.50
10231;DHT22;62604;49.432;8.680;2023-04-06T16:23:56;13.60;4.60
10231;DHT22;62604;49.432;8.680;2023-04-06T16:26:23;13.70;5.80
10231;DHT22;62604;49.432;8.680;2023-04-06T16:28:52;13.70;5.00
10231;DHT22;62604;49.432;8.680;2023-04-06T16:31:20;13.60;4.10
10231;DHT22;62604;49.432;8.680;2023-04-06T16:33:47;13.60;4.90
10231;DHT22;62604;49.432;8.680;2023-04-06T16:36:21;13.60;4.60
10231;DHT22;62604;49.432;8.680;2023-04-06T16:38:51;13.60;5.00
10231;DHT22;62604;49.432;8.680;2023-04-06T16:41:19;13.60;5.30
10231;DHT22;62604;49.432;8.680;2023-04-06T16:43:47;13.50;5.20
10231;DHT22;62604;49.432;8.680;2023-04-06T16:46:15;13.50;5.60
10231;DHT22;62604;49.432;8.680;2023-04-06T16:48:43;13.50;6.10
10231;DHT22;62604;49.432;8.680;2023-04-06T16:51:10;13.40;6.00
10231;DHT22;62604;49.432;8.680;2023-04-06T16:53:39;13.20;5.70
10231;DHT22;62604;49.432;8.680;2023-04-06T16:56:11;13.10;5.90
10231;DHT22;62604;49.432;8.680;2023-04-06T16:58:38;13.10;6.70
10231;DHT22;62604;49.432;8.680;2023-04-06T17:01:05;12.90;5.60
10231;DHT22;62604;49.432;8.680;2023-04-06T17:03:34;12.90;5.50
10231;DHT22;62604;49.432;8.680;2023-04-06T17:06:01;12.90;6.10
10231;DHT22;62604;49.432;8.680;2023-04-06T17:08:28;12.80;6.10
10231;DHT22;62604;49.432;8.680;2023-04-06T17:10:56;12.80;6.80
10231;DHT22;62604;49.432;8.680;2023-04-06T17:13:25;12.80;6.80
10231;DHT22;62604;49.432;8.680;2023-04-06T17:15:59;12.80;7.60
10231;DHT22;62604;49.432;8.680;2023-04-06T17:18:26;12.80;8.00
10231;DHT22;62604;49.432;8.680;2023-04-06T17:20:54;12.80;9.20
10231;DHT22;62604;49.432;8.680;2023-04-06T17:23:22;12.70;9.00
10231;DHT22;62604;49.432;8.680;2023-04-06T17:25:50;12.70;9.30
10231;DHT22;62604;49.432;8.680;2023-04-06T17:28:19;12.60;10.90
10231;DHT22;62604;49.432;8.680;2023-04-06T17:30:48;12.50;12.10
10231;DHT22;62604;49.432;8.680;2023-04-06T17:33:15;12.50;12.70
10231;DHT22;62604;49.432;8.680;2023-04-06T17:35:43;12.40;13.10
10231;DHT22;62604;49.432;8.680;2023-04-06T17:38:10;12.30;13.90
10231;DHT22;62604;49.432;8.680;2023-04-06T17:40:38;12.20;14.50
10231;DHT22;62604;49.432;8.680;2023-04-06T17:43:07;12.20;14.90
10231;DHT22;62604;49.432;8.680;2023-04-06T17:45:35;12.10;15.00
10231;DHT22;62604;49.432;8.680;2023-04-06T17:48:11;12.10;15.40
10231;DHT22;62604;49.432;8.680;2023-04-06T17:50:39;12.00;15.90
10231;DHT22;62604;49.432;8.680;2023-04-06T17:53:06;11.90;16.50
10231;DHT22;62604;49.432;8.680;2023-04-06T17:55:34;11.90;16.90
10231;DHT22;62604;49.432;8.680;2023-04-06T17:58:03;11.80;17.20
10231;DHT22;62604;49.432;8.680;2023-04-06T18:00:31;11.80;17.60
10231;DHT22;62604;49.432;8.680;2023-04-06T18:02:59;11.80;17.80
10231;DHT22;62604;49.432;8.680;2023-04-06T18:05:28;11.70;18.00
10231;DHT22;62604;49.432;8.680;2023-04-06T18:07:56;11.70;18.50
10231;DHT22;62604;49.432;8.680;2023-04-06T18:10:23;11.60;18.80
10231;DHT22;62604;49.432;8.680;2023-04-06T18:12:50;11.60;19.40
10231;DHT22;62604;49.432;8.680;2023-04-06T18:15:18;11.60;19.80
10231;DHT22;62604;49.432;8.680;2023-04-06T18:17:45;11.50;20.20
10231;DHT22;62604;49.432;8.680;2023-04-06T18:20:11;11.40;20.90
10231;DHT22;62604;49.432;8.680;2023-04-06T18:22:42;11.30;21.40
10231;DHT22;62604;49.432;8.680;2023-04-06T18:25:13;11.30;22.00
10231;DHT22;62604;49.432;8.680;2023-04-06T18:27:41;11.20;22.30
10231;DHT22;62604;49.432;8.680;2023-04-06T18:30:09;11.20;22.80
10231;DHT22;62604;49.432;8.680;2023-04-06T18:32:42;11.10;22.70
10231;DHT22;62604;49.432;8.680;2023-04-06T18:35:11;11.10;22.90
10231;DHT22;62604;49.432;8.680;2023-04-06T18:37:42;11.10;23.40
10231;DHT22;62604;49.432;8.680;2023-04-06T18:40:30;11.10;23.70
10231;DHT22;62604;49.432;8.680;2023-04-06T18:42:58;11.00;23.90
10231;DHT22;62604;49.432;8.680;2023-04-06T18:45:31;11.00;24.30
10231;DHT22;62604;49.432;8.680;2023-04-06T18:48:00;11.00;25.20
10231;DHT22;62604;49.432;8.680;2023-04-06T18:50:28;10.80;26.10
10231;DHT22;62604;49.432;8.680;2023-04-06T18:53:10;10.80;26.90
10231;DHT22;62604;49.432;8.680;2023-04-06T18:55:37;10.80;27.60
10231;DHT22;62604;49.432;8.680;2023-04-06T18:58:04;10.70;28.70
10231;DHT22;62604;49.432;8.680;2023-04-06T19:00:31;10.60;29.20
10231;DHT22;62604;49.432;8.680;2023-04-06T19:02:59;10.50;29.80
10231;DHT22;62604;49.432;8.680;2023-04-06T19:05:27;10.50;30.50
10231;DHT22;62604;49.432;8.680;2023-04-06T19:07:55;10.50;32.20
10231;DHT22;62604;49.432;8.680;2023-04-06T19:10:24;10.40;33.30
10231;DHT22;62604;49.432;8.680;2023-04-06T19:12:55;10.30;35.00
10231;DHT22;62604;49.432;8.680;2023-04-06T19:15:22;10.30;34.60
10231;DHT22;62604;49.432;8.680;2023-04-06T19:17:50;10.20;37.20
10231;DHT22;62604;49.432;8.680;2023-04-06T19:20:17;10.10;39.10
10231;DHT22;62604;49.432;8.680;2023-04-06T19:22:46;10.10;41.50
10231;DHT22;62604;49.432;8.680;2023-04-06T19:25:16;10.00;42.40
10231;DHT22;62604;49.432;8.680;2023-04-06T19:27:45;10.00;44.00
10231;DHT22;62604;49.432;8.680;2023-04-06T19:30:13;10.00;46.30
10231;DHT22;62604;49.432;8.680;2023-04-06T19:32:41;9.80;50.10
10231;DHT22;62604;49.432;8.680;2023-04-06T19:35:11;9.80;52.30
10231;DHT22;62604;49.432;8.680;2023-04-06T19:37:41;9.70;56.60
10231;DHT22;62604;49.432;8.680;2023-04-06T19:40:09;9.70;58.50
10231;DHT22;62604;49.432;8.680;2023-04-06T19:42:38;9.60;60.20
10231;DHT22;62604;49.432;8.680;2023-04-06T19:45:10;9.50;65.40
10231;DHT22;62604;49.432;8.680;2023-04-06T19:47:40;9.40;70.90
10231;DHT22;62604;49.432;8.680;2023-04-06T19:50:12;9.30;75.10
10231;DHT22;62604;49.432;8.680;2023-04-06T19:52:40;9.20;81.00
10231;DHT22;62604;49.432;8.680;2023-04-06T19:55:08;9.10;85.90
10231;DHT22;62604;49.432;8.680;2023-04-06T19:57:36;9.00;90.90
10231;DHT22;62604;49.432;8.680;2023-04-06T20:00:05;8.90;91.20
10231;DHT22;62604;49.432;8.680;2023-04-06T20:02:35;8.80;93.70
10231;DHT22;62604;49.432;8.680;2023-04-06T20:05:08;8.70;93.80
10231;DHT22;62604;49.432;8.680;2023-04-06T20:07:39;8.70;92.10
10231;DHT22;62604;49.432;8.680;2023-04-06T20:10:07;8.60;94.70
10231;DHT22;62604;49.432;8.680;2023-04-06T20:12:34;8.60;97.00
10231;DHT22;62604;49.432;8.680;2023-04-06T20:15:04;8.60;99.10
10231;DHT22;62604;49.432;8.680;2023-04-06T20:17:32;8.50;99.90
10231;DHT22;62604;49.432;8.680;2023-04-06T20:20:02;8.50;99.90
10231;DHT22;62604;49.432;8.680;2023-04-06T20:22:30;8.40;99.90
10231;DHT22;62604;49.432;8.680;2023-04-06T20:24:58;8.30;99.90
10231;DHT22;62604;49.432;8.680;2023-04-06T20:27:25;8.30;99.90
10231;DHT22;62604;49.432;8.680;2023-04-06T20:29:53;8.30;99.40
10231;DHT22;62604;49.432;8.680;2023-04-06T20:32:20;8.30;99.90
10231;DHT22;62604;49.432;8.680;2023-04-06T20:34:48;8.30;99.90
10231;DHT22;62604;49.432;8.680;2023-04-06T20:37:16;8.30;99.90
10231;DHT22;62604;49.432;8.680;2023-04-06T20:39:45;8.30;99.90
10231;DHT22;62604;49.432;8.680;2023-04-06T20:42:14;8.20;99.90
10231;DHT22;62604;49.432;8.680;2023-04-06T20:44:46;8.10;99.90
10231;DHT22;62604;49.432;8.680;2023-04-06T20:47:13;8.10;99.90
10231;DHT22;62604;49.432;8.680;2023-04-06T20:49:41;8.00;99.90
10231;DHT22;62604;49.432;8.680;2023-04-06T20:52:09;8.00;99.90
10231;DHT22;62604;49.432;8.680;2023-04-06T20:54:39;7.90;99.90
10231;DHT22;62604;49.432;8.680;2023-04-06T20:57:06;7.90;99.90
10231;DHT22;62604;49.432;8.680;2023-04-06T20:59:37;7.90;99.90
10231;DHT22;62604;49.432;8.680;2023-04-06T21:02:06;7.80;99.90
10231;DHT22;62604;49.432;8.680;2023-04-06T21:04:35;7.80;99.90
10231;DHT22;62604;49.432;8.680;2023-04-06T21:07:04;7.80;99.90
10231;DHT22;62604;49.432;8.680;2023-04-06T21:09:34;7.80;99.90
10231;DHT22;62604;49.432;8.680;2023-04-06T21:12:05;7.70;99.90
10231;DHT22;62604;49.432;8.680;2023-04-06T21:14:38;7.70;99.90
10231;DHT22;62604;49.432;8.680;2023-04-06T21:17:06;7.70;99.90
10231;DHT22;62604;49.432;8.680;2023-04-06T21:19:33;7.70;99.90
10231;DHT22;62604;49.432;8.680;2023-04-06T21:22:01;7.70;99.90
10231;DHT22;62604;49.432;8.680;2023-04-06T21:24:28;7.80;99.90
10231;DHT22;62604;49.432;8.680;2023-04-06T21:26:56;7.70;99.90
10231;DHT22;62604;49.432;8.680;2023-04-06T21:29:25;7.70;99.90
10231;DHT22;62604;49.432;8.680;2023-04-06T21:31:53;7.80;99.90
10231;DHT22;62604;49.432;8.680;2023-04-06T21:34:21;7.90;99.90
10231;DHT22;62604;49.432;8.680;2023-04-06T21:36:51;7.90;99.90
10231;DHT22;62604;49.432;8.680;2023-04-06T21:39:20;7.90;99.90
10231;DHT22;62604;49.432;8.680;2023-04-06T21:41:48;7.80;99.90
10231;DHT22;62604;49.432;8.680;2023-04-06T21:44:17;7.80;99.90
10231;DHT22;62604;49.432;8.680;2023-04-06T21:46:54;7.70;99.90
10231;DHT22;62604;49.432;8.680;2023-04-06T21:49:22;7.70;99.90
10231;DHT22;62604;49.432;8.680;2023-04-06T21:51:50;7.60;99.90
10231;DHT22;62604;49.432;8.680;2023-04-06T21:54:20;7.60;99.90
10231;DHT22;62604;49.432;8.680;2023-04-06T21:56:48;7.50;99.90
10231;DHT22;62604;49.432;8.680;2023-04-06T21:59:16;7.50;99.90
10231;DHT22;62604;49.432;8.680;2023-04-06T22:01:45;7.50;99.90
10231;DHT22;62604;49.432;8.680;2023-04-06T22:04:15;7.40;99.90
10231;DHT22;62604;49.432;8.680;2023-04-06T22:06:43;7.40;99.90
10231;DHT22;62604;49.432;8.680;2023-04-06T22:09:11;7.40;99.90
10231;DHT22;62604;49.432;8.680;2023-04-06T22:11:38;7.40;99.90
10231;DHT22;62604;49.432;8.680;2023-04-06T22:14:20;7.40;99.90
10231;DHT22;62604;49.432;8.680;2023-04-06T22:16:47;7.40;99.90
10231;DHT22;62604;49.432;8.680;2023-04-06T22:19:16;7.40;99.90
10231;DHT22;62604;49.432;8.680;2023-04-06T22:21:43;7.30;99.90
10231;DHT22;62604;49.432;8.680;2023-04-06T22:24:11;7.40;99.90
10231;DHT22;62604;49.432;8.680;2023-04-06T22:26:38;7.40;99.90
10231;DHT22;62604;49.432;8.680;2023-04-06T22:29:07;7.30;99.90
10231;DHT22;62604;49.432;8.680;2023-04-06T22:31:34;7.30;99.90
10231;DHT22;62604;49.432;8.680;2023-04-06T22:34:01;7.30;99.90
10231;DHT22;62604;49.432;8.680;2023-04-06T22:36:30;7.30;99.90
10231;DHT22;62604;49.432;8.680;2023-04-06T22:38:59;7.40;99.90
10231;DHT22;62604;49.432;8.680;2023-04-06T22:41:26;7.30;99.90
10231;DHT22;62604;49.432;8.680;2023-04-06T22:43:55;7.30;99.90
10231;DHT22;62604;49.432;8.680;2023-04-06T22:46:23;7.30;99.90
10231;DHT22;62604;49.432;8.680;2023-04-06T22:48:50;7.20;99.90
10231;DHT22;62604;49.432;8.680;2023-04-06T22:51:20;7.20;99.90
10231;DHT22;62604;49.432;8.680;2023-04-06T22:53:48;7.20;99.90
10231;DHT22;62604;49.432;8.680;2023-04-06T22:56:17;7.10;99.90
10231;DHT22;62604;49.432;8.680;2023-04-06T22:58:48;7.10;99.90
10231;DHT22;62604;49.432;8.680;2023-04-06T23:01:16;7.10;99.90
10231;DHT22;62604;49.432;8.680;2023-04-06T23:03:44;7.20;99.90
10231;DHT22;62604;49.432;8.680;2023-04-06T23:06:11;7.20;99.90
10231;DHT22;62604;49.432;8.680;2023-04-06T23:08:39;7.10;99.90
10231;DHT22;62604;49.432;8.680;2023-04-06T23:11:08;7.10;99.90
10231;DHT22;62604;49.432;8.680;2023-04-06T23:13:35;7.20;99.90
10231;DHT22;62604;49.432;8.680;2023-04-06T23:16:04;7.10;99.90
10231;DHT22;62604;49.432;8.680;2023-04-06T23:18:32;7.10;99.90
10231;DHT22;62604;49.432;8.680;2023-04-06T23:20:59;7.10;99.90
10231;DHT22;62604;49.432;8.680;2023-04-06T23:23:27;7.10;99.90
10231;DHT22;62604;49.432;8.680;2023-04-06T23:25:55;7.10;99.90
10231;DHT22;62604;49.432;8.680;2023-04-06T23:28:24;7.10;99.90
10231;DHT22;62604;49.432;8.680;2023-04-06T23:30:52;7.10;99.90
10231;DHT22;62604;49.432;8.680;2023-04-06T23:33:19;7.10;99.90
10231;DHT22;62604;49.432;8.680;2023-04-06T23:35:45;7.10;99.90
10231;DHT22;62604;49.432;8.680;2023-04-06T23:38:13;7.10;99.90
10231;DHT22;62604;49.432;8.680;2023-04-06T23:40:44;7.10;99.90
10231;DHT22;62604;49.432;8.680;2023-04-06T23:43:11;7.10;99.90
10231;DHT22;62604;49.432;8.680;2023-04-06T23:45:41;7.10;99.90
10231;DHT22;62604;49.432;8.680;2023-04-06T23:48:08;7.10;99.90
10231;DHT22;62604;49.432;8.680;2023-04-06T23:50:36;7.10;99.90
10231;DHT22;62604;49.432;8.680;2023-04-06T23:53:04;7.10;99.90
10231;DHT22;62604;49.432;8.680;2023-04-06T23:55:33;7.10;99.90
10231;DHT22;62604;49.432;8.680;2023-04-06T23:58:01;7.10;99.90
